sensor_id;sensor_type;location;lat;lon;timestamp;P1;durP1;ratioP1;P2;durP2;ratioP2
19691;SDS011;42748;50.016;19.890;2022-12-17T00:02:31;120.63;;;34.70;;
19691;SDS011;42748;50.016;19.890;2022-12-17T00:05:17;121.30;;;34.97;;
19691;SDS011;42748;50.016;19.890;2022-12-17T00:08:02;120.83;;;34.70;;
19691;SDS011;42748;50.016;19.890;2022-12-17T00:10:48;123.07;;;34.57;;
19691;SDS011;42748;50.016;19.890;2022-12-17T00:13:35;117.00;;;34.87;;
19691;SDS011;42748;50.016;19.890;2022-12-17T00:16:21;120.07;;;35.33;;
19691;SDS011;42748;50.016;19.890;2022-12-17T00:19:07;128.93;;;35.73;;
19691;SDS011;42748;50.016;19.890;2022-12-17T00:21:52;119.87;;;33.80;;
19691;SDS011;42748;50.016;19.890;2022-12-17T00:24:38;116.40;;;33.80;;
19691;SDS011;42748;50.016;19.890;2022-12-17T00:27:24;120.23;;;35.83;;
19691;SDS011;42748;50.016;19.890;2022-12-17T00:30:11;119.23;;;34.67;;
19691;SDS011;42748;50.016;19.890;2022-12-17T00:32:56;124.73;;;35.03;;
19691;SDS011;42748;50.016;19.890;2022-12-17T00:35:42;122.07;;;34.57;;
19691;SDS011;42748;50.016;19.890;2022-12-17T00:38:27;131.27;;;35.63;;
19691;SDS011;42748;50.016;19.890;2022-12-17T00:41:13;133.00;;;36.23;;
19691;SDS011;42748;50.016;19.890;2022-12-17T00:43:58;127.23;;;36.20;;
19691;SDS011;42748;50.016;19.890;2022-12-17T00:46:44;135.07;;;36.70;;
19691;SDS011;42748;50.016;19.890;2022-12-17T00:49:30;128.03;;;36.07;;
19691;SDS011;42748;50.016;19.890;2022-12-17T00:52:15;137.63;;;36.67;;
19691;SDS011;42748;50.016;19.890;2022-12-17T00:55:02;129.67;;;35.33;;
19691;SDS011;42748;50.016;19.890;2022-12-17T00:57:55;135.00;;;36.23;;
19691;SDS011;42748;50.016;19.890;2022-12-17T01:00:41;143.90;;;38.13;;
19691;SDS011;42748;50.016;19.890;2022-12-17T01:03:27;135.27;;;35.63;;
19691;SDS011;42748;50.016;19.890;2022-12-17T01:06:13;139.63;;;36.87;;
19691;SDS011;42748;50.016;19.890;2022-12-17T01:08:59;137.63;;;36.30;;
19691;SDS011;42748;50.016;19.890;2022-12-17T01:11:46;143.40;;;37.83;;
19691;SDS011;42748;50.016;19.890;2022-12-17T01:14:32;142.13;;;36.57;;
19691;SDS011;42748;50.016;19.890;2022-12-17T01:17:17;139.63;;;37.53;;
19691;SDS011;42748;50.016;19.890;2022-12-17T01:20:03;136.33;;;36.80;;
19691;SDS011;42748;50.016;19.890;2022-12-17T01:22:49;140.70;;;37.90;;
19691;SDS011;42748;50.016;19.890;2022-12-17T01:25:35;136.50;;;36.50;;
19691;SDS011;42748;50.016;19.890;2022-12-17T01:28:22;136.00;;;36.97;;
19691;SDS011;42748;50.016;19.890;2022-12-17T01:31:09;135.77;;;35.67;;
19691;SDS011;42748;50.016;19.890;2022-12-17T01:34:00;139.03;;;35.80;;
19691;SDS011;42748;50.016;19.890;2022-12-17T01:36:46;133.40;;;35.27;;
19691;SDS011;42748;50.016;19.890;2022-12-17T01:39:32;127.63;;;34.80;;
19691;SDS011;42748;50.016;19.890;2022-12-17T01:42:17;118.77;;;34.77;;
19691;SDS011;42748;50.016;19.890;2022-12-17T01:45:03;112.63;;;33.07;;
19691;SDS011;42748;50.016;19.890;2022-12-17T01:47:52;122.73;;;32.93;;
19691;SDS011;42748;50.016;19.890;2022-12-17T01:50:44;120.23;;;33.20;;
19691;SDS011;42748;50.016;19.890;2022-12-17T01:53:37;108.00;;;30.80;;
19691;SDS011;42748;50.016;19.890;2022-12-17T01:56:26;108.17;;;30.83;;
19691;SDS011;42748;50.016;19.890;2022-12-17T01:59:12;120.53;;;32.00;;
19691;SDS011;42748;50.016;19.890;2022-12-17T02:02:00;99.80;;;30.43;;
19691;SDS011;42748;50.016;19.890;2022-12-17T02:04:46;95.63;;;29.93;;
19691;SDS011;42748;50.016;19.890;2022-12-17T02:13:57;116.10;;;30.83;;
19691;SDS011;42748;50.016;19.890;2022-12-17T02:17:08;99.73;;;29.93;;
19691;SDS011;42748;50.016;19.890;2022-12-17T02:26:18;100.30;;;28.93;;
19691;SDS011;42748;50.016;19.890;2022-12-17T02:29:19;101.90;;;29.57;;
19691;SDS011;42748;50.016;19.890;2022-12-17T02:32:08;99.97;;;28.60;;
19691;SDS011;42748;50.016;19.890;2022-12-17T02:34:55;99.47;;;28.40;;
19691;SDS011;42748;50.016;19.890;2022-12-17T02:37:48;93.73;;;29.27;;
19691;SDS011;42748;50.016;19.890;2022-12-17T02:40:34;90.90;;;27.97;;
19691;SDS011;42748;50.016;19.890;2022-12-17T02:43:22;94.33;;;28.57;;
19691;SDS011;42748;50.016;19.890;2022-12-17T02:46:09;102.53;;;29.73;;
19691;SDS011;42748;50.016;19.890;2022-12-17T02:48:55;104.40;;;29.87;;
19691;SDS011;42748;50.016;19.890;2022-12-17T02:51:41;95.70;;;28.10;;
19691;SDS011;42748;50.016;19.890;2022-12-17T02:54:31;98.13;;;28.93;;
19691;SDS011;42748;50.016;19.890;2022-12-17T02:57:18;89.93;;;27.80;;
19691;SDS011;42748;50.016;19.890;2022-12-17T03:00:10;93.43;;;28.07;;
19691;SDS011;42748;50.016;19.890;2022-12-17T03:02:58;90.97;;;28.77;;
19691;SDS011;42748;50.016;19.890;2022-12-17T03:05:45;86.17;;;27.20;;
19691;SDS011;42748;50.016;19.890;2022-12-17T03:08:32;90.97;;;27.83;;
19691;SDS011;42748;50.016;19.890;2022-12-17T03:11:17;88.03;;;28.30;;
19691;SDS011;42748;50.016;19.890;2022-12-17T03:14:03;91.67;;;28.30;;
19691;SDS011;42748;50.016;19.890;2022-12-17T03:16:49;92.07;;;28.37;;
19691;SDS011;42748;50.016;19.890;2022-12-17T03:19:35;100.87;;;29.27;;
19691;SDS011;42748;50.016;19.890;2022-12-17T03:22:21;95.80;;;29.60;;
19691;SDS011;42748;50.016;19.890;2022-12-17T03:25:06;95.10;;;29.57;;
19691;SDS011;42748;50.016;19.890;2022-12-17T03:27:52;97.73;;;29.20;;
19691;SDS011;42748;50.016;19.890;2022-12-17T03:30:38;91.37;;;30.30;;
19691;SDS011;42748;50.016;19.890;2022-12-17T03:33:23;97.53;;;27.87;;
19691;SDS011;42748;50.016;19.890;2022-12-17T03:36:11;90.50;;;27.60;;
19691;SDS011;42748;50.016;19.890;2022-12-17T03:38:56;86.70;;;27.23;;
19691;SDS011;42748;50.016;19.890;2022-12-17T03:41:42;87.63;;;26.63;;
19691;SDS011;42748;50.016;19.890;2022-12-17T03:44:28;84.27;;;26.73;;
19691;SDS011;42748;50.016;19.890;2022-12-17T03:47:13;72.70;;;24.87;;
19691;SDS011;42748;50.016;19.890;2022-12-17T03:49:59;86.97;;;27.50;;
19691;SDS011;42748;50.016;19.890;2022-12-17T03:52:45;91.90;;;28.80;;
19691;SDS011;42748;50.016;19.890;2022-12-17T03:55:31;76.37;;;26.43;;
19691;SDS011;42748;50.016;19.890;2022-12-17T03:58:17;84.93;;;26.93;;
19691;SDS011;42748;50.016;19.890;2022-12-17T04:01:02;88.33;;;26.93;;
19691;SDS011;42748;50.016;19.890;2022-12-17T04:03:48;78.23;;;25.43;;
19691;SDS011;42748;50.016;19.890;2022-12-17T04:06:34;83.13;;;27.60;;
19691;SDS011;42748;50.016;19.890;2022-12-17T04:09:19;81.27;;;27.10;;
19691;SDS011;42748;50.016;19.890;2022-12-17T04:12:05;84.67;;;28.23;;
19691;SDS011;42748;50.016;19.890;2022-12-17T04:14:51;91.23;;;28.70;;
19691;SDS011;42748;50.016;19.890;2022-12-17T04:17:37;100.37;;;30.07;;
19691;SDS011;42748;50.016;19.890;2022-12-17T04:20:22;91.30;;;28.90;;
19691;SDS011;42748;50.016;19.890;2022-12-17T04:23:08;98.60;;;30.17;;
19691;SDS011;42748;50.016;19.890;2022-12-17T04:25:53;98.90;;;29.10;;
19691;SDS011;42748;50.016;19.890;2022-12-17T04:28:39;102.80;;;30.37;;
19691;SDS011;42748;50.016;19.890;2022-12-17T04:31:24;103.17;;;31.83;;
19691;SDS011;42748;50.016;19.890;2022-12-17T04:34:10;107.43;;;32.97;;
19691;SDS011;42748;50.016;19.890;2022-12-17T04:36:56;102.17;;;30.93;;
19691;SDS011;42748;50.016;19.890;2022-12-17T04:39:41;109.93;;;33.33;;
19691;SDS011;42748;50.016;19.890;2022-12-17T04:42:27;115.93;;;32.90;;
19691;SDS011;42748;50.016;19.890;2022-12-17T04:45:13;113.47;;;32.87;;
19691;SDS011;42748;50.016;19.890;2022-12-17T04:48:02;106.40;;;32.63;;
19691;SDS011;42748;50.016;19.890;2022-12-17T04:50:49;106.30;;;32.03;;
19691;SDS011;42748;50.016;19.890;2022-12-17T04:53:35;121.67;;;33.53;;
19691;SDS011;42748;50.016;19.890;2022-12-17T04:56:21;115.40;;;33.17;;
19691;SDS011;42748;50.016;19.890;2022-12-17T04:59:07;121.50;;;34.83;;
19691;SDS011;42748;50.016;19.890;2022-12-17T05:01:52;110.83;;;32.97;;
19691;SDS011;42748;50.016;19.890;2022-12-17T05:04:38;113.20;;;34.17;;
19691;SDS011;42748;50.016;19.890;2022-12-17T05:07:24;116.57;;;34.57;;
19691;SDS011;42748;50.016;19.890;2022-12-17T05:10:09;118.90;;;33.77;;
19691;SDS011;42748;50.016;19.890;2022-12-17T05:12:58;133.47;;;35.77;;
19691;SDS011;42748;50.016;19.890;2022-12-17T05:15:45;115.87;;;33.97;;
19691;SDS011;42748;50.016;19.890;2022-12-17T05:18:31;110.60;;;33.20;;
19691;SDS011;42748;50.016;19.890;2022-12-17T05:21:16;110.57;;;33.13;;
19691;SDS011;42748;50.016;19.890;2022-12-17T05:24:02;110.37;;;34.00;;
19691;SDS011;42748;50.016;19.890;2022-12-17T05:26:48;116.20;;;34.13;;
19691;SDS011;42748;50.016;19.890;2022-12-17T05:29:34;114.53;;;33.67;;
19691;SDS011;42748;50.016;19.890;2022-12-17T05:32:19;116.50;;;35.13;;
19691;SDS011;42748;50.016;19.890;2022-12-17T05:35:05;126.93;;;35.90;;
19691;SDS011;42748;50.016;19.890;2022-12-17T05:37:51;114.43;;;34.87;;
19691;SDS011;42748;50.016;19.890;2022-12-17T05:40:37;122.10;;;34.63;;
19691;SDS011;42748;50.016;19.890;2022-12-17T05:43:23;130.77;;;35.93;;
19691;SDS011;42748;50.016;19.890;2022-12-17T05:46:08;128.67;;;37.23;;
19691;SDS011;42748;50.016;19.890;2022-12-17T05:48:54;130.00;;;36.77;;
19691;SDS011;42748;50.016;19.890;2022-12-17T05:51:39;125.37;;;36.23;;
19691;SDS011;42748;50.016;19.890;2022-12-17T05:54:25;129.13;;;36.63;;
19691;SDS011;42748;50.016;19.890;2022-12-17T05:57:11;129.10;;;36.90;;
19691;SDS011;42748;50.016;19.890;2022-12-17T05:59:56;134.73;;;40.03;;
19691;SDS011;42748;50.016;19.890;2022-12-17T06:02:42;127.37;;;37.90;;
19691;SDS011;42748;50.016;19.890;2022-12-17T06:05:28;120.10;;;37.03;;
19691;SDS011;42748;50.016;19.890;2022-12-17T06:08:14;122.73;;;37.57;;
19691;SDS011;42748;50.016;19.890;2022-12-17T06:10:59;114.97;;;33.47;;
19691;SDS011;42748;50.016;19.890;2022-12-17T06:13:45;118.83;;;34.50;;
19691;SDS011;42748;50.016;19.890;2022-12-17T06:16:31;119.33;;;35.50;;
19691;SDS011;42748;50.016;19.890;2022-12-17T06:19:16;121.00;;;34.97;;
19691;SDS011;42748;50.016;19.890;2022-12-17T06:22:02;108.87;;;35.30;;
19691;SDS011;42748;50.016;19.890;2022-12-17T06:24:47;122.90;;;34.43;;
19691;SDS011;42748;50.016;19.890;2022-12-17T06:27:33;118.23;;;35.10;;
19691;SDS011;42748;50.016;19.890;2022-12-17T06:30:19;121.47;;;35.20;;
19691;SDS011;42748;50.016;19.890;2022-12-17T06:33:05;115.00;;;33.40;;
19691;SDS011;42748;50.016;19.890;2022-12-17T06:35:52;116.90;;;35.00;;
19691;SDS011;42748;50.016;19.890;2022-12-17T06:38:47;105.43;;;34.30;;
19691;SDS011;42748;50.016;19.890;2022-12-17T06:41:33;118.77;;;33.93;;
19691;SDS011;42748;50.016;19.890;2022-12-17T06:44:29;112.43;;;33.90;;
19691;SDS011;42748;50.016;19.890;2022-12-17T06:47:14;124.50;;;35.50;;
19691;SDS011;42748;50.016;19.890;2022-12-17T06:50:01;125.33;;;37.00;;
19691;SDS011;42748;50.016;19.890;2022-12-17T06:52:47;115.10;;;36.27;;
19691;SDS011;42748;50.016;19.890;2022-12-17T06:55:41;121.33;;;35.43;;
19691;SDS011;42748;50.016;19.890;2022-12-17T06:58:27;123.83;;;36.10;;
19691;SDS011;42748;50.016;19.890;2022-12-17T07:01:12;127.27;;;37.53;;
19691;SDS011;42748;50.016;19.890;2022-12-17T07:03:58;127.10;;;36.50;;
19691;SDS011;42748;50.016;19.890;2022-12-17T07:06:44;130.33;;;39.50;;
19691;SDS011;42748;50.016;19.890;2022-12-17T07:09:30;126.63;;;36.47;;
19691;SDS011;42748;50.016;19.890;2022-12-17T07:12:16;127.60;;;37.53;;
19691;SDS011;42748;50.016;19.890;2022-12-17T07:15:01;130.00;;;38.20;;
19691;SDS011;42748;50.016;19.890;2022-12-17T07:18:00;125.13;;;37.80;;
19691;SDS011;42748;50.016;19.890;2022-12-17T07:20:48;124.40;;;36.67;;
19691;SDS011;42748;50.016;19.890;2022-12-17T07:23:37;134.13;;;38.47;;
19691;SDS011;42748;50.016;19.890;2022-12-17T07:26:23;128.27;;;37.27;;
19691;SDS011;42748;50.016;19.890;2022-12-17T07:29:09;133.13;;;39.33;;
19691;SDS011;42748;50.016;19.890;2022-12-17T07:31:54;129.07;;;38.53;;
19691;SDS011;42748;50.016;19.890;2022-12-17T07:34:40;129.73;;;39.03;;
19691;SDS011;42748;50.016;19.890;2022-12-17T07:37:26;127.77;;;39.57;;
19691;SDS011;42748;50.016;19.890;2022-12-17T07:40:11;138.33;;;40.63;;
19691;SDS011;42748;50.016;19.890;2022-12-17T07:42:57;131.50;;;39.33;;
19691;SDS011;42748;50.016;19.890;2022-12-17T07:45:42;133.57;;;38.33;;
19691;SDS011;42748;50.016;19.890;2022-12-17T07:48:28;126.97;;;40.30;;
19691;SDS011;42748;50.016;19.890;2022-12-17T07:51:13;118.73;;;37.07;;
19691;SDS011;42748;50.016;19.890;2022-12-17T07:53:59;126.97;;;38.60;;
19691;SDS011;42748;50.016;19.890;2022-12-17T07:56:45;130.57;;;39.27;;
19691;SDS011;42748;50.016;19.890;2022-12-17T07:59:30;131.83;;;37.87;;
19691;SDS011;42748;50.016;19.890;2022-12-17T08:02:16;113.43;;;34.17;;
19691;SDS011;42748;50.016;19.890;2022-12-17T08:05:02;121.10;;;38.10;;
19691;SDS011;42748;50.016;19.890;2022-12-17T08:07:48;135.87;;;39.37;;
19691;SDS011;42748;50.016;19.890;2022-12-17T08:10:33;133.93;;;39.03;;
19691;SDS011;42748;50.016;19.890;2022-12-17T08:13:19;131.03;;;38.87;;
19691;SDS011;42748;50.016;19.890;2022-12-17T08:16:05;131.43;;;40.53;;
19691;SDS011;42748;50.016;19.890;2022-12-17T08:18:51;135.80;;;40.63;;
19691;SDS011;42748;50.016;19.890;2022-12-17T08:21:36;131.63;;;36.77;;
19691;SDS011;42748;50.016;19.890;2022-12-17T08:24:22;132.97;;;38.60;;
19691;SDS011;42748;50.016;19.890;2022-12-17T08:27:08;129.50;;;39.30;;
19691;SDS011;42748;50.016;19.890;2022-12-17T08:29:54;125.43;;;37.47;;
19691;SDS011;42748;50.016;19.890;2022-12-17T08:32:39;137.67;;;40.23;;
19691;SDS011;42748;50.016;19.890;2022-12-17T08:35:25;139.30;;;40.60;;
19691;SDS011;42748;50.016;19.890;2022-12-17T08:38:10;133.03;;;38.53;;
19691;SDS011;42748;50.016;19.890;2022-12-17T08:40:58;124.40;;;39.80;;
19691;SDS011;42748;50.016;19.890;2022-12-17T08:43:44;138.43;;;40.23;;
19691;SDS011;42748;50.016;19.890;2022-12-17T08:46:30;128.20;;;39.90;;
19691;SDS011;42748;50.016;19.890;2022-12-17T08:49:15;134.70;;;40.40;;
19691;SDS011;42748;50.016;19.890;2022-12-17T08:52:01;144.53;;;44.37;;
19691;SDS011;42748;50.016;19.890;2022-12-17T08:54:48;143.47;;;43.27;;
19691;SDS011;42748;50.016;19.890;2022-12-17T08:57:34;133.70;;;42.47;;
19691;SDS011;42748;50.016;19.890;2022-12-17T09:00:20;136.77;;;40.27;;
19691;SDS011;42748;50.016;19.890;2022-12-17T09:03:05;147.07;;;43.47;;
19691;SDS011;42748;50.016;19.890;2022-12-17T09:05:52;141.97;;;43.03;;
19691;SDS011;42748;50.016;19.890;2022-12-17T09:08:38;139.60;;;43.67;;
19691;SDS011;42748;50.016;19.890;2022-12-17T09:11:24;138.87;;;42.37;;
19691;SDS011;42748;50.016;19.890;2022-12-17T09:14:09;143.43;;;42.60;;
19691;SDS011;42748;50.016;19.890;2022-12-17T09:16:55;146.27;;;44.17;;
19691;SDS011;42748;50.016;19.890;2022-12-17T09:19:41;118.77;;;36.83;;
19691;SDS011;42748;50.016;19.890;2022-12-17T09:22:27;135.50;;;42.13;;
19691;SDS011;42748;50.016;19.890;2022-12-17T09:25:12;139.13;;;44.30;;
19691;SDS011;42748;50.016;19.890;2022-12-17T09:28:01;131.70;;;41.07;;
19691;SDS011;42748;50.016;19.890;2022-12-17T09:30:47;129.07;;;41.43;;
19691;SDS011;42748;50.016;19.890;2022-12-17T09:33:33;127.40;;;39.80;;
19691;SDS011;42748;50.016;19.890;2022-12-17T09:36:19;132.67;;;42.43;;
19691;SDS011;42748;50.016;19.890;2022-12-17T09:39:05;137.10;;;42.10;;
19691;SDS011;42748;50.016;19.890;2022-12-17T09:48:25;127.33;;;42.23;;
19691;SDS011;42748;50.016;19.890;2022-12-17T09:51:18;142.67;;;42.50;;
19691;SDS011;42748;50.016;19.890;2022-12-17T09:54:14;140.20;;;43.83;;
19691;SDS011;42748;50.016;19.890;2022-12-17T09:57:05;133.60;;;42.67;;
19691;SDS011;42748;50.016;19.890;2022-12-17T09:59:54;138.13;;;42.90;;
19691;SDS011;42748;50.016;19.890;2022-12-17T10:02:40;140.50;;;43.93;;
19691;SDS011;42748;50.016;19.890;2022-12-17T10:05:27;143.87;;;43.50;;
19691;SDS011;42748;50.016;19.890;2022-12-17T10:08:16;135.53;;;43.80;;
19691;SDS011;42748;50.016;19.890;2022-12-17T10:11:09;139.63;;;44.07;;
19691;SDS011;42748;50.016;19.890;2022-12-17T10:14:02;139.67;;;42.90;;
19691;SDS011;42748;50.016;19.890;2022-12-17T10:16:55;133.30;;;42.50;;
19691;SDS011;42748;50.016;19.890;2022-12-17T10:19:41;140.93;;;42.57;;
19691;SDS011;42748;50.016;19.890;2022-12-17T10:22:26;135.60;;;42.27;;
19691;SDS011;42748;50.016;19.890;2022-12-17T10:25:16;130.10;;;42.30;;
19691;SDS011;42748;50.016;19.890;2022-12-17T10:28:06;129.63;;;40.53;;
19691;SDS011;42748;50.016;19.890;2022-12-17T10:30:56;128.40;;;41.13;;
19691;SDS011;42748;50.016;19.890;2022-12-17T10:33:44;134.07;;;41.10;;
19691;SDS011;42748;50.016;19.890;2022-12-17T10:36:30;143.77;;;42.23;;
19691;SDS011;42748;50.016;19.890;2022-12-17T10:39:17;132.07;;;38.60;;
19691;SDS011;42748;50.016;19.890;2022-12-17T10:45:20;131.40;;;41.33;;
19691;SDS011;42748;50.016;19.890;2022-12-17T10:48:16;131.10;;;40.03;;
19691;SDS011;42748;50.016;19.890;2022-12-17T10:51:04;133.00;;;41.60;;
19691;SDS011;42748;50.016;19.890;2022-12-17T10:54:02;137.93;;;40.97;;
19691;SDS011;42748;50.016;19.890;2022-12-17T10:56:54;138.00;;;42.70;;
19691;SDS011;42748;50.016;19.890;2022-12-17T10:59:43;141.90;;;43.13;;
19691;SDS011;42748;50.016;19.890;2022-12-17T11:02:29;146.93;;;42.73;;
19691;SDS011;42748;50.016;19.890;2022-12-17T11:05:29;138.90;;;42.57;;
19691;SDS011;42748;50.016;19.890;2022-12-17T11:08:25;132.23;;;41.50;;
19691;SDS011;42748;50.016;19.890;2022-12-17T11:11:11;139.10;;;42.03;;
19691;SDS011;42748;50.016;19.890;2022-12-17T11:13:59;135.20;;;41.07;;
19691;SDS011;42748;50.016;19.890;2022-12-17T11:16:54;138.73;;;42.57;;
19691;SDS011;42748;50.016;19.890;2022-12-17T11:19:55;130.23;;;40.03;;
19691;SDS011;42748;50.016;19.890;2022-12-17T11:22:47;134.40;;;41.10;;
19691;SDS011;42748;50.016;19.890;2022-12-17T11:25:47;142.27;;;41.50;;
19691;SDS011;42748;50.016;19.890;2022-12-17T11:28:37;139.60;;;41.17;;
19691;SDS011;42748;50.016;19.890;2022-12-17T11:50:13;133.10;;;38.67;;
19691;SDS011;42748;50.016;19.890;2022-12-17T11:56:44;147.23;;;42.23;;
19691;SDS011;42748;50.016;19.890;2022-12-17T11:59:34;142.40;;;43.33;;
19691;SDS011;42748;50.016;19.890;2022-12-17T12:06:22;143.50;;;43.20;;
19691;SDS011;42748;50.016;19.890;2022-12-17T12:09:56;143.77;;;42.93;;
19691;SDS011;42748;50.016;19.890;2022-12-17T12:22:25;152.87;;;43.87;;
19691;SDS011;42748;50.016;19.890;2022-12-17T12:28:41;156.97;;;46.53;;
19691;SDS011;42748;50.016;19.890;2022-12-17T12:31:40;162.67;;;47.33;;
19691;SDS011;42748;50.016;19.890;2022-12-17T12:34:39;153.20;;;47.10;;
19691;SDS011;42748;50.016;19.890;2022-12-17T12:37:28;158.90;;;48.57;;
19691;SDS011;42748;50.016;19.890;2022-12-17T12:43:14;151.03;;;44.57;;
19691;SDS011;42748;50.016;19.890;2022-12-17T12:46:10;176.17;;;51.13;;
19691;SDS011;42748;50.016;19.890;2022-12-17T12:52:09;179.90;;;52.77;;
19691;SDS011;42748;50.016;19.890;2022-12-17T12:55:02;189.77;;;52.83;;
19691;SDS011;42748;50.016;19.890;2022-12-17T13:03:33;172.00;;;48.07;;
19691;SDS011;42748;50.016;19.890;2022-12-17T13:11:45;190.13;;;54.70;;
19691;SDS011;42748;50.016;19.890;2022-12-17T13:14:34;200.23;;;53.90;;
19691;SDS011;42748;50.016;19.890;2022-12-17T13:24:55;181.80;;;54.10;;
19691;SDS011;42748;50.016;19.890;2022-12-17T13:41:06;187.77;;;54.33;;
19691;SDS011;42748;50.016;19.890;2022-12-17T13:43:47;183.20;;;52.63;;
19691;SDS011;42748;50.016;19.890;2022-12-17T13:46:16;187.80;;;53.90;;
19691;SDS011;42748;50.016;19.890;2022-12-17T13:48:52;185.17;;;54.43;;
19691;SDS011;42748;50.016;19.890;2022-12-17T13:51:21;198.73;;;53.37;;
19691;SDS011;42748;50.016;19.890;2022-12-17T13:53:55;201.60;;;55.93;;
19691;SDS011;42748;50.016;19.890;2022-12-17T13:56:25;212.77;;;57.73;;
19691;SDS011;42748;50.016;19.890;2022-12-17T13:58:56;189.50;;;52.27;;
19691;SDS011;42748;50.016;19.890;2022-12-17T14:01:42;209.33;;;58.83;;
19691;SDS011;42748;50.016;19.890;2022-12-17T14:04:20;213.10;;;59.13;;
19691;SDS011;42748;50.016;19.890;2022-12-17T14:06:52;212.37;;;57.23;;
19691;SDS011;42748;50.016;19.890;2022-12-17T14:09:23;205.93;;;59.90;;
19691;SDS011;42748;50.016;19.890;2022-12-17T14:12:13;214.13;;;59.00;;
19691;SDS011;42748;50.016;19.890;2022-12-17T14:17:24;218.77;;;59.73;;
19691;SDS011;42748;50.016;19.890;2022-12-17T14:20:01;223.27;;;58.27;;
19691;SDS011;42748;50.016;19.890;2022-12-17T14:22:39;215.37;;;59.17;;
19691;SDS011;42748;50.016;19.890;2022-12-17T14:25:18;233.10;;;61.07;;
19691;SDS011;42748;50.016;19.890;2022-12-17T14:27:55;222.53;;;59.87;;
19691;SDS011;42748;50.016;19.890;2022-12-17T14:30:32;223.43;;;57.40;;
19691;SDS011;42748;50.016;19.890;2022-12-17T14:35:58;251.40;;;62.57;;
19691;SDS011;42748;50.016;19.890;2022-12-17T14:38:26;248.37;;;67.60;;
19691;SDS011;42748;50.016;19.890;2022-12-17T14:41:06;240.63;;;63.53;;
19691;SDS011;42748;50.016;19.890;2022-12-17T14:43:57;221.40;;;59.00;;
19691;SDS011;42748;50.016;19.890;2022-12-17T14:46:25;237.20;;;62.63;;
19691;SDS011;42748;50.016;19.890;2022-12-17T14:48:58;243.00;;;64.57;;
19691;SDS011;42748;50.016;19.890;2022-12-17T14:51:31;255.50;;;63.30;;
19691;SDS011;42748;50.016;19.890;2022-12-17T14:54:04;247.77;;;62.13;;
19691;SDS011;42748;50.016;19.890;2022-12-17T14:56:32;219.03;;;57.93;;
19691;SDS011;42748;50.016;19.890;2022-12-17T14:58:59;205.67;;;52.63;;
19691;SDS011;42748;50.016;19.890;2022-12-17T15:01:27;232.83;;;63.67;;
19691;SDS011;42748;50.016;19.890;2022-12-17T15:03:55;250.80;;;64.57;;
19691;SDS011;42748;50.016;19.890;2022-12-17T15:06:22;241.87;;;61.60;;
19691;SDS011;42748;50.016;19.890;2022-12-17T15:08:49;241.67;;;59.87;;
19691;SDS011;42748;50.016;19.890;2022-12-17T15:11:20;266.93;;;63.53;;
19691;SDS011;42748;50.016;19.890;2022-12-17T15:13:48;255.07;;;62.60;;
19691;SDS011;42748;50.016;19.890;2022-12-17T15:16:22;258.03;;;63.97;;
19691;SDS011;42748;50.016;19.890;2022-12-17T15:18:49;230.40;;;59.47;;
19691;SDS011;42748;50.016;19.890;2022-12-17T15:21:16;248.30;;;63.33;;
19691;SDS011;42748;50.016;19.890;2022-12-17T15:23:45;221.93;;;55.77;;
19691;SDS011;42748;50.016;19.890;2022-12-17T15:26:13;251.63;;;62.03;;
19691;SDS011;42748;50.016;19.890;2022-12-17T15:28:40;245.03;;;59.77;;
19691;SDS011;42748;50.016;19.890;2022-12-17T15:31:11;252.10;;;61.07;;
19691;SDS011;42748;50.016;19.890;2022-12-17T15:33:40;240.67;;;60.93;;
19691;SDS011;42748;50.016;19.890;2022-12-17T15:36:09;232.97;;;61.07;;
19691;SDS011;42748;50.016;19.890;2022-12-17T15:38:37;221.23;;;56.50;;
19691;SDS011;42748;50.016;19.890;2022-12-17T15:41:04;228.50;;;59.53;;
19691;SDS011;42748;50.016;19.890;2022-12-17T15:43:52;250.73;;;61.87;;
19691;SDS011;42748;50.016;19.890;2022-12-17T15:46:19;231.63;;;57.50;;
19691;SDS011;42748;50.016;19.890;2022-12-17T15:48:46;244.70;;;59.43;;
19691;SDS011;42748;50.016;19.890;2022-12-17T15:51:16;223.10;;;54.43;;
19691;SDS011;42748;50.016;19.890;2022-12-17T15:53:45;220.03;;;51.37;;
19691;SDS011;42748;50.016;19.890;2022-12-17T15:56:20;269.80;;;66.47;;
19691;SDS011;42748;50.016;19.890;2022-12-17T15:58:51;243.00;;;62.37;;
19691;SDS011;42748;50.016;19.890;2022-12-17T16:01:21;250.70;;;62.03;;
19691;SDS011;42748;50.016;19.890;2022-12-17T16:03:49;184.03;;;49.97;;
19691;SDS011;42748;50.016;19.890;2022-12-17T16:06:17;159.20;;;41.43;;
19691;SDS011;42748;50.016;19.890;2022-12-17T16:08:44;270.53;;;68.60;;
19691;SDS011;42748;50.016;19.890;2022-12-17T16:11:12;276.57;;;68.63;;
19691;SDS011;42748;50.016;19.890;2022-12-17T16:13:41;228.97;;;57.00;;
19691;SDS011;42748;50.016;19.890;2022-12-17T16:16:08;239.60;;;57.80;;
19691;SDS011;42748;50.016;19.890;2022-12-17T16:18:36;235.97;;;56.80;;
19691;SDS011;42748;50.016;19.890;2022-12-17T16:21:05;258.07;;;65.93;;
19691;SDS011;42748;50.016;19.890;2022-12-17T16:23:34;279.07;;;66.23;;
19691;SDS011;42748;50.016;19.890;2022-12-17T16:26:03;248.17;;;57.23;;
19691;SDS011;42748;50.016;19.890;2022-12-17T16:28:31;264.67;;;65.80;;
19691;SDS011;42748;50.016;19.890;2022-12-17T16:31:00;276.03;;;68.90;;
19691;SDS011;42748;50.016;19.890;2022-12-17T16:33:30;252.30;;;62.70;;
19691;SDS011;42748;50.016;19.890;2022-12-17T16:36:02;272.77;;;68.60;;
19691;SDS011;42748;50.016;19.890;2022-12-17T16:38:30;268.23;;;64.80;;
19691;SDS011;42748;50.016;19.890;2022-12-17T16:40:58;263.20;;;62.80;;
19691;SDS011;42748;50.016;19.890;2022-12-17T16:43:27;268.97;;;65.13;;
19691;SDS011;42748;50.016;19.890;2022-12-17T16:45:58;278.90;;;67.70;;
19691;SDS011;42748;50.016;19.890;2022-12-17T16:48:25;224.77;;;57.07;;
19691;SDS011;42748;50.016;19.890;2022-12-17T16:50:52;231.93;;;55.13;;
19691;SDS011;42748;50.016;19.890;2022-12-17T16:53:19;271.70;;;68.00;;
19691;SDS011;42748;50.016;19.890;2022-12-17T16:55:47;265.10;;;64.37;;
19691;SDS011;42748;50.016;19.890;2022-12-17T16:58:15;251.47;;;64.23;;
19691;SDS011;42748;50.016;19.890;2022-12-17T17:00:43;279.50;;;68.97;;
19691;SDS011;42748;50.016;19.890;2022-12-17T17:03:11;278.30;;;67.17;;
19691;SDS011;42748;50.016;19.890;2022-12-17T17:05:39;263.03;;;66.43;;
19691;SDS011;42748;50.016;19.890;2022-12-17T17:08:06;254.23;;;66.93;;
19691;SDS011;42748;50.016;19.890;2022-12-17T17:10:33;259.73;;;65.97;;
19691;SDS011;42748;50.016;19.890;2022-12-17T17:13:02;252.83;;;65.37;;
19691;SDS011;42748;50.016;19.890;2022-12-17T17:15:29;226.63;;;53.67;;
19691;SDS011;42748;50.016;19.890;2022-12-17T17:17:57;279.53;;;70.83;;